ADDS METAR Data INFO
IDs: Format: Raw Decoded Include TAF

Data at: 0903 UTC 20 Oct 2017

KHNR 200855Z AUTO 19006KT 10SM CLR 13/11 A3002 RMK AO2
KHNR 200835Z AUTO 20005KT 10SM CLR 12/11 A3002 RMK AO2
KHNR 200815Z AUTO 20005KT 10SM CLR 13/11 A3002 RMK AO2
KHNR 200755Z AUTO 20007KT 10SM CLR 13/11 A3003 RMK AO2
KHNR 200735Z AUTO 19005KT 10SM CLR 13/11 A3003 RMK AO2
KHNR 200715Z AUTO 20007KT 10SM CLR 14/11 A3003 RMK AO2
KHNR 200655Z AUTO 20007KT 10SM CLR 14/11 A3003 RMK AO2
KHNR 200635Z AUTO 19007KT 10SM CLR 14/11 A3003 RMK AO2
KHNR 200615Z AUTO 20006KT 10SM CLR 15/11 A3002 RMK AO2
KHNR 200555Z AUTO 19008KT 10SM CLR 15/11 A3002 RMK AO2
KHNR 200535Z AUTO 19007KT 10SM CLR 15/11 A3002 RMK AO2
KHNR 200515Z AUTO 18007KT 10SM CLR 15/11 A3002 RMK AO2
KHNR 200455Z AUTO 18008KT 10SM CLR 15/11 A3002 RMK AO2
KHNR 200435Z AUTO 17007KT 10SM CLR 16/11 A3002 RMK AO2
KHNR 200415Z AUTO 17008KT 10SM CLR 16/11 A3002 RMK AO2
KHNR 200355Z AUTO 18006KT 10SM CLR 16/11 A3002 RMK AO2
KHNR 200335Z AUTO 17007KT 10SM CLR 17/11 A3002 RMK AO2
KHNR 200315Z AUTO 17005KT 10SM CLR 16/11 A3002 RMK AO2
KHNR 200255Z AUTO 18007KT 10SM CLR 17/11 A3002 RMK AO2
KHNR 200235Z AUTO 18007KT 10SM CLR 17/11 A3002 RMK AO2
KHNR 200215Z AUTO 17006KT 10SM CLR 18/11 A3002 RMK AO2
KHNR 200155Z AUTO 17005KT 10SM CLR 17/11 A3002 RMK AO2
KHNR 200135Z AUTO 17007KT 10SM CLR 18/11 A3002 RMK AO2
KHNR 200115Z AUTO 18007KT 10SM CLR 19/11 A3002 RMK AO2
KHNR 200055Z AUTO 18006KT 10SM CLR 17/11 A3002 RMK AO2
KHNR 200035Z AUTO 18004KT 10SM CLR 18/11 A3002 RMK AO2
KHNR 200015Z AUTO 17005KT 10SM CLR 19/11 A3002 RMK AO2
KHNR 192355Z AUTO 18004KT 10SM CLR 20/11 A3002 RMK AO2
KHNR 192335Z AUTO 18006KT 10SM CLR 22/11 A3002 RMK AO2
KHNR 192315Z AUTO 17006KT 10SM CLR 23/11 A3002 RMK AO2
KHNR 192255Z AUTO 18006KT 10SM CLR 24/11 A3002 RMK AO2
KHNR 192235Z AUTO 18007G13KT 10SM CLR 25/11 A3002 RMK AO2
KHNR 192215Z AUTO 18008G14KT 10SM CLR 25/12 A3002 RMK AO2
KHNR 192155Z AUTO 18010KT 10SM CLR 25/11 A3002 RMK AO2
KHNR 192135Z AUTO 18012G18KT 10SM CLR 25/12 A3002 RMK AO2
KHNR 192115Z AUTO 19011G16KT 10SM CLR 25/12 A3002 RMK AO2
KHNR 192055Z AUTO 17012G17KT 10SM CLR 25/12 A3003 RMK AO2
KHNR 192035Z AUTO 18011G16KT 10SM CLR 25/12 A3003 RMK AO2
KHNR 192015Z AUTO 16008G16KT 10SM CLR 25/11 A3004 RMK AO2
KHNR 191955Z AUTO 17011KT 10SM CLR 25/11 A3004 RMK AO2
KHNR 191935Z AUTO 19011KT 10SM CLR 24/11 A3005 RMK AO2
KHNR 191915Z AUTO 17010KT 10SM CLR 24/11 A3006 RMK AO2
KHNR 191855Z AUTO 15009G15KT 10SM CLR 24/11 A3007 RMK AO2
KHNR 191835Z AUTO 16009G17KT 10SM CLR 23/11 A3008 RMK AO2
KHNR 191815Z AUTO 18011KT 10SM CLR 23/11 A3009 RMK AO2
KHNR 191755Z AUTO 17011KT 10SM CLR 23/11 A3010 RMK AO2
KHNR 191735Z AUTO 15007G18KT 10SM CLR 22/11 A3010 RMK AO2
KHNR 191715Z AUTO 15013G19KT 10SM CLR 21/10 A3011 RMK AO2
KHNR 191655Z AUTO 15012KT 10SM CLR 21/09 A3011 RMK AO2
KHNR 191635Z AUTO 14009KT 10SM CLR 20/08 A3012 RMK AO2
KHNR 191615Z AUTO 12010KT 10SM CLR 19/07 A3013 RMK AO2
KHNR 191555Z AUTO VRB06G14KT 10SM CLR 18/07 A3013 RMK AO2
KHNR 191535Z AUTO 15007KT 10SM CLR 17/06 A3014 RMK AO2
KHNR 191515Z AUTO VRB03G10KT 10SM CLR 16/05 A3014 RMK AO2
KHNR 191455Z AUTO 00000KT 10SM CLR 15/05 A3014 RMK AO2
KHNR 191435Z AUTO 00000KT 10SM CLR 13/05 A3014 RMK AO2
KHNR 191415Z AUTO 00000KT 7SM CLR 12/05 A3014 RMK AO2
KHNR 191355Z AUTO 00000KT 10SM CLR 11/05 A3013 RMK AO2
KHNR 191335Z AUTO 00000KT 10SM CLR 10/04 A3012 RMK AO2
KHNR 191315Z AUTO 00000KT 10SM CLR 07/04 A3012 RMK AO2
KHNR 191255Z AUTO 00000KT 9SM CLR 06/04 A3012 RMK AO2
KHNR 191235Z AUTO 00000KT 7SM CLR 05/04 A3011 RMK AO2
KHNR 191215Z AUTO 00000KT 10SM CLR 04/04 A3011 RMK AO2
KHNR 191155Z AUTO 00000KT 10SM CLR 04/04 A3011 RMK AO2
KHNR 191135Z AUTO 00000KT 10SM CLR 04/04 A3011 RMK AO2
KHNR 191115Z AUTO 00000KT 8SM CLR 04/04 A3011 RMK AO2
KHNR 191055Z AUTO 00000KT 10SM CLR 04/04 A3011 RMK AO2
KHNR 191035Z AUTO 00000KT 10SM CLR 04/04 A3010 RMK AO2
KHNR 191015Z AUTO 00000KT 10SM CLR 05/05 A3010 RMK AO2
KHNR 190955Z AUTO 00000KT 10SM CLR 05/04 A3010 RMK AO2
KHNR 190935Z AUTO 00000KT 10SM CLR 04/04 A3010 RMK AO2
KHNR 190915Z AUTO 00000KT 10SM CLR 05/05 A3010 RMK AO2
KHNR 190855Z AUTO 02004KT 10SM CLR 05/05 A3009 RMK AO2
KHNR 190835Z AUTO 00000KT 10SM CLR 05/05 A3009 RMK AO2
KHNR 190815Z AUTO 00000KT 10SM CLR 06/05 A3009 RMK AO2
KHNR 190755Z AUTO 02004KT 10SM CLR 06/06 A3009 RMK AO2
KHNR 190735Z AUTO 01005KT 10SM CLR 05/05 A3009 RMK AO2
KHNR 190715Z AUTO 02003KT 10SM CLR 05/05 A3008 RMK AO2
KHNR 190655Z AUTO 00000KT 10SM CLR 06/06 A3008 RMK AO2
KHNR 190635Z AUTO 00000KT 10SM CLR 05/05 A3008 RMK AO2
KHNR 190615Z AUTO 00000KT 10SM CLR 06/06 A3008 RMK AO2
KHNR 190555Z AUTO 00000KT 10SM CLR 06/06 A3008 RMK AO2
KHNR 190535Z AUTO 00000KT 10SM CLR 06/06 A3008 RMK AO2
KHNR 190515Z AUTO 00000KT 10SM CLR 06/06 A3008 RMK AO2
KHNR 190455Z AUTO 00000KT 10SM CLR 07/07 A3008 RMK AO2
KHNR 190435Z AUTO 00000KT 10SM CLR 07/07 A3008 RMK AO2
KHNR 190415Z AUTO 00000KT 10SM CLR 08/07 A3008 RMK AO2
KHNR 190355Z AUTO 00000KT 10SM CLR 07/07 A3008 RMK AO2
KHNR 190335Z AUTO 00000KT 10SM CLR 09/08 A3008 RMK AO2
KHNR 190315Z AUTO 00000KT 10SM CLR 09/08 A3008 RMK AO2
KHNR 190255Z AUTO 00000KT 10SM CLR 09/08 A3008 RMK AO2
KHNR 190235Z AUTO 00000KT 10SM CLR 10/08 A3007 RMK AO2
KHNR 190215Z AUTO 00000KT 10SM CLR 11/08 A3007 RMK AO2
KHNR 190155Z AUTO 00000KT 10SM CLR 11/08 A3006 RMK AO2
KHNR 190135Z AUTO 00000KT 10SM CLR 11/08 A3006 RMK AO2
KHNR 190115Z AUTO 00000KT 10SM CLR 13/09 A3006 RMK AO2
KHNR 190055Z AUTO 00000KT 10SM CLR 14/09 A3005 RMK AO2
KHNR 190035Z AUTO 36004KT 10SM CLR 14/09 A3004 RMK AO2
KHNR 190015Z AUTO 00000KT 10SM CLR 17/09 A3003 RMK AO2
KHNR 182355Z AUTO 01004KT 10SM CLR 18/09 A3003 RMK AO2
KHNR 182335Z AUTO 31008KT 10SM CLR 17/10 A3001 RMK AO2
KHNR 182315Z AUTO 00000KT 10SM CLR 21/10 A3000 RMK AO2
KHNR 182255Z AUTO 20003KT 10SM CLR 22/09 A2999 RMK AO2
KHNR 182235Z AUTO 24004KT 10SM CLR 23/10 A2998 RMK AO2
KHNR 182215Z AUTO 25005KT 10SM CLR 23/10 A2998 RMK AO2
KHNR 182155Z AUTO 26006KT 10SM CLR 23/09 A2998 RMK AO2
KHNR 182135Z AUTO 25006G13KT 10SM CLR 23/10 A2997 RMK AO2
KHNR 182115Z AUTO 21010KT 10SM CLR 23/09 A2996 RMK AO2